createdAt,value
2018-03-26T00:01:48.835Z,4.00
2018-03-26T00:04:15.025Z,4.00
2018-03-26T00:06:41.222Z,4.00
2018-03-26T00:09:08.175Z,4.00
2018-03-26T00:11:34.378Z,4.00
2018-03-26T00:14:00.590Z,4.00
2018-03-26T00:16:27.526Z,4.10
2018-03-26T00:18:53.713Z,4.00
2018-03-26T00:21:20.659Z,4.10
2018-03-26T00:23:46.854Z,4.00
2018-03-26T00:26:13.795Z,4.10
2018-03-26T00:28:40.007Z,4.10
2018-03-26T00:31:06.180Z,4.10
2018-03-26T00:33:32.409Z,4.10
2018-03-26T00:35:58.623Z,4.10
2018-03-26T00:38:25.543Z,4.10
2018-03-26T00:40:51.736Z,4.10
2018-03-26T00:43:18.732Z,4.10
2018-03-26T00:45:44.902Z,4.10
2018-03-26T00:48:11.096Z,4.10
2018-03-26T00:50:37.335Z,4.10
2018-03-26T00:53:03.503Z,4.10
2018-03-26T00:55:29.737Z,4.10
2018-03-26T00:57:55.934Z,4.20
2018-03-26T01:00:22.139Z,4.20
2018-03-26T01:02:48.374Z,4.20
2018-03-26T01:05:14.579Z,4.20
2018-03-26T01:07:40.814Z,4.20
2018-03-26T01:10:07.027Z,4.20
2018-03-26T01:12:33.214Z,4.20
2018-03-26T01:14:59.447Z,4.20
2018-03-26T01:17:25.634Z,4.10
2018-03-26T01:19:51.859Z,4.20
2018-03-26T01:22:18.082Z,4.20
2018-03-26T01:24:44.287Z,4.20
2018-03-26T01:27:11.970Z,4.20
2018-03-26T01:29:38.153Z,4.20
2018-03-26T01:32:05.092Z,4.20
2018-03-26T01:34:31.291Z,4.20
2018-03-26T01:36:57.504Z,4.20
2018-03-26T01:39:23.688Z,4.20
2018-03-26T01:41:50.626Z,4.10
2018-03-26T01:44:16.827Z,4.10
2018-03-26T01:46:43.015Z,4.10
2018-03-26T01:49:09.235Z,4.10
2018-03-26T01:51:35.422Z,4.10
2018-03-26T01:54:01.582Z,4.10
2018-03-26T01:56:27.810Z,4.10
2018-03-26T01:58:54.033Z,4.10
2018-03-26T02:01:20.187Z,4.10
2018-03-26T02:03:46.416Z,4.10
2018-03-26T02:06:13.290Z,4.10
2018-03-26T02:08:39.480Z,4.10
2018-03-26T02:11:05.709Z,4.10
2018-03-26T02:13:31.954Z,4.10
2018-03-26T02:15:58.139Z,4.10
2018-03-26T02:18:24.319Z,4.00
2018-03-26T02:20:50.532Z,4.00
2018-03-26T02:23:16.757Z,4.00
2018-03-26T02:25:42.960Z,4.00
2018-03-26T02:28:09.187Z,4.00
2018-03-26T02:30:35.421Z,4.00
2018-03-26T02:33:01.623Z,4.00
2018-03-26T02:35:27.856Z,4.00
2018-03-26T02:37:54.057Z,4.00
2018-03-26T02:40:21.014Z,4.00
2018-03-26T02:42:47.237Z,3.90
2018-03-26T02:45:13.474Z,4.00
2018-03-26T02:47:39.690Z,4.00
2018-03-26T02:50:06.632Z,4.00
2018-03-26T02:52:32.856Z,4.00
2018-03-26T02:54:59.083Z,4.00
2018-03-26T02:57:26.039Z,4.00
2018-03-26T02:59:53.020Z,4.00
2018-03-26T03:02:19.187Z,4.00
2018-03-26T03:04:45.351Z,4.00
2018-03-26T03:07:11.536Z,3.90
2018-03-26T03:09:37.713Z,3.90
2018-03-26T03:12:04.597Z,4.00
2018-03-26T03:14:30.761Z,3.90
2018-03-26T03:16:56.951Z,4.00
2018-03-26T03:19:23.126Z,4.00
2018-03-26T03:21:49.328Z,3.90
2018-03-26T03:24:16.221Z,3.90
2018-03-26T03:26:42.383Z,3.90
2018-03-26T03:29:08.594Z,3.90
2018-03-26T03:31:34.749Z,3.90
2018-03-26T03:34:00.944Z,3.90
2018-03-26T03:36:27.117Z,3.90
2018-03-26T03:38:54.003Z,3.90
2018-03-26T03:41:20.158Z,3.90
2018-03-26T03:43:46.322Z,3.90
2018-03-26T03:46:12.482Z,3.90
2018-03-26T03:48:38.659Z,3.90
2018-03-26T03:51:04.835Z,3.90
2018-03-26T03:53:31.724Z,4.00
2018-03-26T03:55:58.662Z,4.00
2018-03-26T03:58:27.997Z,3.90
2018-03-26T04:00:54.092Z,4.00
2018-03-26T04:03:20.168Z,4.00
2018-03-26T04:05:46.242Z,4.00
2018-03-26T04:08:13.058Z,4.00
2018-03-26T04:10:39.158Z,4.00
2018-03-26T04:13:05.219Z,4.00
2018-03-26T04:15:31.295Z,4.00
2018-03-26T04:17:57.392Z,4.00
2018-03-26T04:20:23.418Z,4.00
2018-03-26T04:22:49.496Z,4.00
2018-03-26T04:25:15.542Z,4.00
2018-03-26T04:27:41.615Z,4.00
2018-03-26T04:30:07.670Z,4.10
2018-03-26T04:32:33.730Z,4.00
2018-03-26T04:34:59.818Z,4.00
2018-03-26T04:37:26.620Z,4.10
2018-03-26T04:39:52.673Z,4.00
2018-03-26T04:42:18.771Z,4.10
2018-03-26T04:44:44.843Z,4.10
2018-03-26T04:47:10.906Z,4.10
2018-03-26T04:49:37.706Z,4.10
2018-03-26T04:52:03.754Z,4.00
2018-03-26T04:54:29.817Z,4.10
2018-03-26T04:56:55.888Z,4.10
2018-03-26T04:59:21.971Z,4.10
2018-03-26T05:01:48.037Z,4.10
2018-03-26T05:04:14.110Z,4.10
2018-03-26T05:06:40.184Z,4.10
2018-03-26T05:09:06.253Z,4.10
2018-03-26T05:11:33.068Z,4.10
2018-03-26T05:13:59.113Z,4.10
2018-03-26T05:16:25.181Z,4.10
2018-03-26T05:18:51.982Z,4.10
2018-03-26T05:21:18.061Z,4.10
2018-03-26T05:23:44.130Z,4.10
2018-03-26T05:26:10.177Z,4.10
2018-03-26T05:28:36.223Z,4.10
2018-03-26T05:31:02.322Z,4.10
2018-03-26T05:33:28.346Z,4.20
2018-03-26T05:35:55.147Z,4.20
2018-03-26T05:38:21.201Z,4.10
2018-03-26T05:40:47.268Z,4.20
2018-03-26T05:43:13.318Z,4.20
2018-03-26T05:45:40.158Z,4.20
2018-03-26T05:48:06.224Z,4.20
2018-03-26T05:50:33.032Z,4.30
2018-03-26T05:52:59.099Z,4.20
2018-03-26T05:55:25.894Z,4.30
2018-03-26T05:57:51.970Z,4.30
2018-03-26T06:00:18.074Z,4.40
2018-03-26T06:02:44.171Z,4.40
2018-03-26T06:05:10.998Z,4.40
2018-03-26T06:07:37.090Z,4.40
2018-03-26T06:10:03.162Z,4.40
2018-03-26T06:12:29.256Z,4.50
2018-03-26T06:14:55.336Z,4.50
2018-03-26T06:17:21.441Z,4.60
2018-03-26T06:19:47.524Z,4.60
2018-03-26T06:22:13.622Z,4.70
2018-03-26T06:24:39.717Z,4.70
2018-03-26T06:27:05.814Z,4.80
2018-03-26T06:29:31.909Z,4.80
2018-03-26T06:31:58.013Z,4.80
2018-03-26T06:34:24.105Z,4.90
2018-03-26T06:36:54.148Z,5.00
2018-03-26T06:39:23.281Z,5.10
2018-03-26T06:41:49.384Z,5.10
2018-03-26T06:44:15.549Z,5.20
2018-03-26T06:46:41.734Z,5.20
2018-03-26T06:49:07.739Z,5.30
2018-03-26T06:51:33.846Z,5.40
2018-03-26T06:53:59.927Z,5.50
2018-03-26T06:56:26.021Z,5.50
2018-03-26T06:58:52.096Z,5.60
2018-03-26T07:01:18.176Z,5.70
2018-03-26T07:03:44.242Z,5.70
2018-03-26T07:06:10.310Z,5.80
2018-03-26T07:08:36.366Z,5.90
2018-03-26T07:11:03.177Z,6.10
2018-03-26T07:13:29.241Z,6.10
2018-03-26T07:15:55.322Z,6.20
2018-03-26T07:18:21.381Z,6.20
2018-03-26T07:20:47.428Z,6.30
2018-03-26T07:23:13.494Z,6.30
2018-03-26T07:25:39.562Z,6.30
2018-03-26T07:28:05.648Z,6.30
2018-03-26T07:30:31.708Z,6.30
2018-03-26T07:32:58.518Z,6.30
2018-03-26T07:35:24.581Z,6.30
2018-03-26T07:37:50.642Z,6.40
2018-03-26T07:40:17.445Z,6.40
2018-03-26T07:42:43.506Z,6.40
2018-03-26T07:45:09.570Z,6.50
2018-03-26T07:47:36.400Z,6.50
2018-03-26T07:50:03.210Z,6.50
2018-03-26T07:52:29.266Z,6.50
2018-03-26T07:54:55.341Z,6.60
2018-03-26T07:57:21.398Z,6.60
2018-03-26T07:59:48.258Z,6.60
2018-03-26T08:02:15.104Z,6.70
2018-03-26T08:04:41.953Z,6.70
2018-03-26T08:07:08.781Z,6.90
2018-03-26T08:09:34.887Z,6.90
2018-03-26T08:12:00.973Z,7.00
2018-03-26T08:14:27.065Z,7.30
2018-03-26T08:16:53.150Z,7.70
2018-03-26T08:19:19.254Z,8.20
2018-03-26T08:21:45.355Z,8.60
2018-03-26T08:24:11.433Z,9.00
2018-03-26T08:26:37.532Z,9.30
2018-03-26T08:29:03.605Z,9.60
2018-03-26T08:31:29.689Z,9.80
2018-03-26T08:33:56.513Z,10.40
2018-03-26T08:36:22.620Z,10.30
2018-03-26T08:38:48.728Z,10.60
2018-03-26T08:41:14.822Z,10.80
2018-03-26T08:43:40.907Z,11.10
2018-03-26T08:46:07.031Z,11.40
2018-03-26T08:48:40.293Z,11.80
2018-03-26T08:51:06.378Z,11.70
2018-03-26T08:53:33.224Z,12.20
2018-03-26T08:55:59.324Z,12.20
2018-03-26T08:58:25.405Z,12.40
2018-03-26T09:00:52.210Z,12.60
2018-03-26T09:03:18.284Z,12.60
2018-03-26T09:05:44.386Z,12.80
2018-03-26T09:08:10.422Z,13.00
2018-03-26T09:10:36.491Z,13.20
2018-03-26T09:13:02.580Z,13.40
2018-03-26T09:15:28.642Z,13.60
2018-03-26T09:17:54.698Z,13.80
2018-03-26T09:20:20.762Z,14.00
2018-03-26T09:22:47.588Z,14.10
2018-03-26T09:25:13.659Z,14.10
2018-03-26T09:27:39.734Z,14.30
2018-03-26T09:30:05.774Z,14.60
2018-03-26T09:32:31.840Z,14.80
2018-03-26T09:34:57.911Z,15.00
2018-03-26T09:37:23.988Z,15.20
2018-03-26T09:39:50.057Z,15.20
2018-03-26T09:42:16.854Z,15.50
2018-03-26T09:44:42.926Z,15.50
2018-03-26T09:47:08.992Z,15.60
2018-03-26T09:49:35.808Z,15.80
2018-03-26T09:52:01.862Z,15.70
2018-03-26T09:54:27.942Z,15.90
2018-03-26T09:56:54.330Z,16.10
2018-03-26T09:59:34.499Z,16.20
2018-03-26T10:02:00.557Z,16.30
2018-03-26T10:04:26.629Z,16.40
2018-03-26T10:06:52.698Z,16.50
2018-03-26T10:09:18.790Z,16.60
2018-03-26T10:11:45.583Z,16.80
2018-03-26T10:14:11.679Z,16.80
2018-03-26T10:16:37.718Z,16.90
2018-03-26T10:19:04.505Z,17.00
2018-03-26T10:21:30.577Z,17.00
2018-03-26T10:23:56.621Z,17.10
2018-03-26T10:26:22.681Z,17.10
2018-03-26T10:28:49.496Z,17.10
2018-03-26T10:31:15.608Z,17.10
2018-03-26T10:33:42.354Z,17.00
2018-03-26T10:36:08.443Z,17.00
2018-03-26T10:38:34.502Z,16.90
2018-03-26T10:41:01.314Z,16.80
2018-03-26T10:43:27.383Z,16.70
2018-03-26T10:45:54.186Z,16.80
2018-03-26T10:48:20.252Z,16.80
2018-03-26T10:50:46.318Z,16.80
2018-03-26T10:53:13.161Z,16.60
2018-03-26T10:55:39.250Z,16.50
2018-03-26T10:58:05.359Z,16.40
2018-03-26T11:00:31.464Z,16.40
2018-03-26T11:02:57.576Z,16.50
2018-03-26T11:05:23.657Z,16.40
2018-03-26T11:07:50.503Z,15.90
2018-03-26T11:10:17.330Z,15.80
2018-03-26T11:12:43.430Z,15.80
2018-03-26T11:15:09.536Z,15.80
2018-03-26T11:17:36.358Z,15.80
2018-03-26T11:20:02.444Z,15.70
2018-03-26T11:22:28.518Z,15.90
2018-03-26T11:24:54.605Z,15.90
2018-03-26T11:27:21.431Z,15.40
2018-03-26T11:29:47.510Z,15.40
2018-03-26T11:32:13.596Z,15.10
2018-03-26T11:34:39.681Z,14.80
2018-03-26T11:37:06.515Z,14.30
2018-03-26T11:39:32.597Z,14.30
2018-03-26T11:41:58.685Z,14.20
2018-03-26T11:44:24.778Z,13.90
2018-03-26T11:46:50.854Z,13.80
2018-03-26T11:49:18.409Z,13.40
2018-03-26T11:51:44.506Z,13.40
2018-03-26T11:54:10.596Z,13.40
2018-03-26T11:56:36.689Z,13.30
2018-03-26T11:59:02.774Z,13.20
2018-03-26T12:01:28.867Z,13.10
2018-03-26T12:03:54.964Z,13.00
2018-03-26T12:06:21.056Z,12.90
2018-03-26T12:08:47.142Z,12.90
2018-03-26T12:11:14.333Z,12.80
2018-03-26T12:13:40.431Z,12.70
2018-03-26T12:16:06.566Z,12.50
2018-03-26T12:18:32.648Z,12.30
2018-03-26T12:21:00.579Z,12.30
2018-03-26T12:23:45.437Z,12.30
2018-03-26T12:26:11.536Z,12.20
2018-03-26T12:28:57.131Z,12.10
2018-03-26T12:31:24.012Z,12.10
2018-03-26T12:34:08.758Z,12.10
2018-03-26T12:36:35.590Z,12.10
2018-03-26T12:39:01.667Z,12.00
2018-03-26T12:41:27.777Z,12.00
2018-03-26T12:43:55.966Z,12.00
2018-03-26T12:46:44.117Z,11.90
2018-03-26T12:49:10.218Z,11.90
2018-03-26T12:51:55.063Z,11.90
2018-03-26T12:54:21.146Z,11.90
2018-03-26T12:56:47.251Z,11.80
2018-03-26T12:59:13.317Z,11.80
2018-03-26T13:01:58.286Z,11.80
2018-03-26T13:04:24.358Z,11.80
2018-03-26T13:06:50.447Z,11.80
2018-03-26T13:09:16.518Z,11.80
2018-03-26T13:11:42.590Z,11.70
2018-03-26T13:14:09.404Z,11.50
2018-03-26T13:16:35.484Z,11.50
2018-03-26T13:19:02.334Z,11.40
2018-03-26T13:21:29.256Z,11.30
2018-03-26T13:23:55.444Z,11.30
2018-03-26T13:26:21.631Z,11.30
2018-03-26T13:28:47.793Z,11.30
2018-03-26T13:31:14.700Z,11.30
2018-03-26T13:36:13.720Z,11.20
2018-03-26T13:38:39.879Z,11.10
2018-03-26T13:41:06.038Z,10.90
2018-03-26T13:43:32.261Z,10.80
2018-03-26T13:45:58.452Z,10.70
2018-03-26T13:48:25.379Z,10.60
2018-03-26T13:50:51.541Z,10.50
2018-03-26T13:53:18.471Z,10.40
2018-03-26T13:55:44.639Z,10.40
2018-03-26T13:58:10.793Z,10.40
2018-03-26T14:00:37.775Z,10.30
2018-03-26T14:03:03.943Z,10.30
2018-03-26T14:05:30.158Z,10.20
2018-03-26T14:07:56.384Z,10.10
2018-03-26T14:10:41.353Z,9.90
2018-03-26T14:13:26.961Z,9.60
2018-03-26T14:16:11.803Z,9.60
2018-03-26T14:18:38.019Z,9.60
2018-03-26T14:21:04.215Z,9.50
2018-03-26T14:23:30.432Z,9.50
2018-03-26T14:25:57.355Z,9.30
2018-03-26T14:28:23.582Z,9.20
2018-03-26T14:30:49.822Z,9.10
2018-03-26T14:33:16.036Z,9.00
2018-03-26T14:35:42.210Z,8.90
2018-03-26T14:38:08.433Z,8.80
2018-03-26T14:40:34.620Z,8.80
2018-03-26T14:43:00.859Z,8.80
2018-03-26T14:45:27.051Z,8.80
2018-03-26T14:47:53.265Z,8.80
2018-03-26T14:50:20.205Z,8.90
2018-03-26T14:52:47.191Z,9.00
2018-03-26T14:55:13.411Z,9.00
2018-03-26T14:57:40.328Z,9.30
2018-03-26T15:00:06.551Z,9.30
2018-03-26T15:02:32.749Z,9.50
2018-03-26T15:04:59.720Z,9.80
2018-03-26T15:07:25.882Z,9.70
2018-03-26T15:09:52.107Z,9.80
2018-03-26T15:12:19.091Z,9.80
2018-03-26T15:14:45.317Z,9.80
2018-03-26T15:17:11.519Z,9.90
2018-03-26T15:19:38.475Z,9.90
2018-03-26T15:22:04.727Z,9.80
2018-03-26T15:24:31.665Z,9.80
2018-03-26T15:26:57.891Z,9.70
2018-03-26T15:29:24.071Z,9.70
2018-03-26T15:31:51.033Z,9.70
2018-03-26T15:34:17.957Z,9.80
2018-03-26T15:36:44.197Z,9.80
2018-03-26T15:39:10.416Z,9.80
2018-03-26T15:41:36.628Z,9.80
2018-03-26T15:44:02.887Z,9.80
2018-03-26T15:46:29.084Z,9.80
2018-03-26T15:48:56.051Z,9.80
2018-03-26T15:51:22.976Z,9.80
2018-03-26T15:53:49.916Z,9.80
2018-03-26T15:56:16.160Z,9.80
2018-03-26T15:58:43.011Z,9.80
2018-03-26T16:01:09.822Z,9.80
2018-03-26T16:03:35.907Z,9.80
2018-03-26T16:06:02.731Z,9.70
2018-03-26T16:08:28.909Z,9.70
2018-03-26T16:10:55.796Z,9.60
2018-03-26T16:13:21.962Z,9.60
2018-03-26T16:15:48.111Z,9.50
2018-03-26T16:18:15.044Z,9.40
2018-03-26T16:20:41.197Z,9.40
2018-03-26T16:23:07.372Z,9.30
2018-03-26T16:25:34.299Z,9.30
2018-03-26T16:28:00.475Z,9.20
2018-03-26T16:30:27.399Z,9.10
2018-03-26T16:32:53.558Z,9.10
2018-03-26T16:35:20.536Z,8.90
2018-03-26T16:37:46.678Z,8.90
2018-03-26T16:40:12.896Z,8.90
2018-03-26T16:42:41.766Z,8.70
2018-03-26T16:45:07.930Z,8.70
2018-03-26T16:47:34.089Z,8.70
2018-03-26T16:50:00.985Z,8.60
2018-03-26T16:52:27.173Z,8.50
2018-03-26T16:54:54.077Z,8.50
2018-03-26T16:57:20.282Z,8.40
2018-03-26T17:00:14.157Z,8.40
2018-03-26T17:02:41.079Z,8.30
2018-03-26T17:05:07.306Z,8.30
2018-03-26T17:07:33.502Z,8.30
2018-03-26T17:10:00.454Z,8.20
2018-03-26T17:12:27.395Z,8.10
2018-03-26T17:14:53.596Z,8.10
2018-03-26T17:17:19.833Z,8.00
2018-03-26T17:19:46.038Z,8.00
2018-03-26T17:22:12.963Z,7.90
2018-03-26T17:24:39.183Z,7.90
2018-03-26T17:27:05.380Z,7.80
2018-03-26T17:29:32.295Z,7.70
2018-03-26T17:31:58.719Z,7.70
2018-03-26T17:34:24.908Z,7.70
2018-03-26T17:36:51.875Z,7.60
2018-03-26T17:39:18.877Z,7.60
2018-03-26T17:41:45.739Z,7.50
2018-03-26T17:44:11.927Z,7.50
2018-03-26T17:47:03.559Z,7.40
2018-03-26T17:49:36.328Z,7.30
2018-03-26T17:55:23.647Z,7.30
2018-03-26T17:57:50.614Z,7.10
2018-03-26T18:00:16.796Z,7.10
2018-03-26T18:02:42.983Z,7.10
2018-03-26T18:05:09.206Z,7.00
2018-03-26T18:07:36.145Z,7.00
2018-03-26T18:10:02.324Z,7.00
2018-03-26T18:12:29.231Z,6.90
2018-03-26T18:14:55.469Z,6.90
2018-03-26T18:17:21.668Z,6.90
2018-03-26T18:19:47.904Z,6.90
2018-03-26T18:22:14.098Z,6.90
2018-03-26T18:24:40.291Z,6.90
2018-03-26T18:27:06.509Z,6.80
2018-03-26T18:29:33.454Z,6.80
2018-03-26T18:31:59.619Z,6.80
2018-03-26T18:34:26.565Z,6.70
2018-03-26T18:36:53.515Z,6.70
2018-03-26T18:39:20.406Z,6.70
2018-03-26T18:41:46.599Z,6.70
2018-03-26T18:44:12.828Z,6.70
2018-03-26T18:46:39.019Z,6.70
2018-03-26T18:49:05.226Z,6.60
2018-03-26T18:51:31.416Z,6.60
2018-03-26T18:53:57.622Z,6.60
2018-03-26T18:56:24.594Z,6.50
2018-03-26T18:58:50.794Z,6.50
2018-03-26T19:01:16.984Z,6.50
2018-03-26T19:03:43.155Z,6.50
2018-03-26T19:06:09.380Z,6.40
2018-03-26T19:08:35.622Z,6.50
2018-03-26T19:11:01.795Z,6.50
2018-03-26T19:13:28.008Z,6.50
2018-03-26T19:15:54.199Z,6.50
2018-03-26T19:18:21.136Z,6.40
2018-03-26T19:20:47.330Z,6.40
2018-03-26T19:23:13.573Z,6.40
2018-03-26T19:25:39.774Z,6.40
2018-03-26T19:28:06.716Z,6.40
2018-03-26T19:30:32.904Z,6.40
2018-03-26T19:32:59.153Z,6.40
2018-03-26T19:35:25.351Z,6.40
2018-03-26T19:37:52.289Z,6.50
2018-03-26T19:40:18.490Z,6.50
2018-03-26T19:42:44.712Z,6.50
2018-03-26T19:45:10.932Z,6.50
2018-03-26T19:47:37.903Z,6.40
2018-03-26T19:50:04.067Z,6.40
2018-03-26T19:52:30.293Z,6.40
2018-03-26T19:54:56.475Z,6.30
2018-03-26T19:57:22.695Z,6.20
2018-03-26T19:59:48.898Z,6.20
2018-03-26T20:02:15.834Z,6.00
2018-03-26T20:04:42.025Z,6.00
2018-03-26T20:07:08.214Z,5.90
2018-03-26T20:09:34.410Z,5.80
2018-03-26T20:12:00.611Z,5.70
2018-03-26T20:14:27.556Z,5.50
2018-03-26T20:16:54.499Z,5.40
2018-03-26T20:19:20.677Z,5.40
2018-03-26T20:21:46.908Z,5.30
2018-03-26T20:24:13.875Z,5.20
2018-03-26T20:26:40.093Z,5.20
2018-03-26T20:29:06.986Z,5.00
2018-03-26T20:31:33.175Z,5.00
2018-03-26T20:33:59.399Z,4.90
2018-03-26T20:36:25.567Z,4.90
2018-03-26T20:38:52.489Z,4.70
2018-03-26T20:41:19.623Z,4.60
2018-03-26T20:43:45.819Z,4.60
2018-03-26T20:46:12.740Z,4.40
2018-03-26T20:48:38.939Z,4.30
2018-03-26T20:51:05.126Z,4.30
2018-03-26T20:53:31.327Z,4.20
2018-03-26T20:55:58.254Z,4.00
2018-03-26T20:58:24.470Z,4.00
2018-03-26T21:00:50.633Z,4.00
2018-03-26T21:03:16.827Z,4.00
2018-03-26T21:05:43.041Z,3.90
2018-03-26T21:08:09.215Z,3.90
2018-03-26T21:13:46.147Z,3.80
2018-03-26T21:16:12.480Z,3.70
2018-03-26T21:24:44.110Z,3.70
2018-03-26T21:27:13.821Z,3.70
2018-03-26T21:29:40.088Z,3.70
2018-03-26T21:35:15.455Z,3.80
2018-03-26T21:37:44.792Z,3.80
2018-03-26T21:43:34.866Z,4.00
2018-03-26T21:46:06.446Z,3.90
2018-03-26T21:48:33.358Z,4.00
2018-03-26T21:51:11.843Z,4.00
2018-03-26T21:53:49.843Z,4.20
2018-03-26T21:56:30.694Z,4.30
2018-03-26T21:59:03.997Z,4.30
2018-03-26T22:01:30.297Z,4.40
2018-03-26T22:07:12.415Z,4.50
2018-03-26T22:09:38.583Z,4.60
2018-03-26T22:15:05.159Z,4.60
2018-03-26T22:17:46.487Z,4.60
2018-03-26T22:20:14.719Z,4.50
2018-03-26T22:22:40.924Z,4.50
2018-03-26T22:25:07.106Z,4.50
2018-03-26T22:27:33.295Z,4.50
2018-03-26T22:29:59.489Z,4.50
2018-03-26T22:32:25.688Z,4.60
2018-03-26T22:34:51.885Z,4.60
2018-03-26T22:37:18.839Z,4.70
2018-03-26T22:39:45.750Z,4.80
2018-03-26T22:42:11.940Z,4.80
2018-03-26T22:44:38.145Z,4.90
2018-03-26T22:47:04.351Z,4.90
2018-03-26T22:49:30.559Z,5.00
2018-03-26T22:51:57.513Z,5.20
2018-03-26T22:54:24.459Z,5.20
2018-03-26T22:56:50.660Z,5.20
2018-03-26T22:59:16.857Z,5.20
2018-03-26T23:01:43.815Z,5.30
2018-03-26T23:04:10.766Z,5.30
2018-03-26T23:06:37.695Z,5.40
2018-03-26T23:09:03.860Z,5.40
2018-03-26T23:11:30.787Z,5.40
2018-03-26T23:13:56.978Z,5.40
2018-03-26T23:16:23.187Z,5.40
2018-03-26T23:18:49.379Z,5.40
2018-03-26T23:21:15.580Z,5.40
2018-03-26T23:23:42.519Z,5.40
2018-03-26T23:26:08.745Z,5.40
2018-03-26T23:28:34.963Z,5.40
2018-03-26T23:31:01.107Z,5.40
2018-03-26T23:33:27.278Z,5.40
2018-03-26T23:35:57.106Z,5.40
2018-03-26T23:38:23.296Z,5.40
2018-03-26T23:40:49.496Z,5.40
2018-03-26T23:43:15.675Z,5.40
2018-03-26T23:45:41.864Z,5.40
2018-03-26T23:48:08.067Z,5.30
2018-03-26T23:50:34.259Z,5.30
2018-03-26T23:53:01.175Z,5.30
2018-03-26T23:55:27.366Z,5.30
2018-03-26T23:57:54.345Z,5.30
